Time;durP1;ratioP1;P1;durP2;ratioP2;P2;SDS_P1;SDS_P2;PMS_P1;PMS_P2;Temp;Humidity;BMP_temperature;BMP_pressure;BME280_temperature;BME280_humidity;BME280_pressure;Samples;Min_cycle;Max_cycle;Signal;HPM_P1;HPM_P2
2023/10/29 00:00:11;;;;;;;0.80;0.80;;;13.50;99.90;;;;;;5031344;28;20136;-92
2023/10/29 00:02:37;;;;;;;0.80;0.80;;;13.70;99.90;;;;;;5031756;28;20045;-89
2023/10/29 00:05:04;;;;;;;0.80;0.80;;;13.80;99.90;;;;;;5056876;28;20674;-84
2023/10/29 00:07:29;;;;;;;0.80;0.80;;;13.70;99.90;;;;;;5022610;28;20598;-85
2023/10/29 00:09:55;;;;;;;0.90;0.90;;;13.70;99.90;;;;;;5011734;28;20055;-87
2023/10/29 00:12:21;;;;;;;0.90;0.90;;;13.90;99.90;;;;;;5027471;28;20045;-88
2023/10/29 00:14:47;;;;;;;0.90;0.90;;;13.80;99.90;;;;;;5029002;28;20080;-90
2023/10/29 00:17:14;;;;;;;0.90;0.90;;;13.30;99.90;;;;;;5018269;28;20037;-88
2023/10/29 00:19:39;;;;;;;0.90;0.90;;;13.90;99.90;;;;;;5062584;28;20196;-89
2023/10/29 00:22:05;;;;;;;0.90;0.90;;;13.30;99.90;;;;;;5014520;28;20553;-90
2023/10/29 00:24:31;;;;;;;0.80;0.80;;;13.80;99.90;;;;;;5018070;28;20041;-90
2023/10/29 00:26:57;;;;;;;0.88;0.88;;;14.00;99.90;;;;;;5021744;28;20053;-92
2023/10/29 00:29:23;;;;;;;0.90;0.90;;;13.70;99.90;;;;;;5033455;28;20045;-91
2023/10/29 00:31:48;;;;;;;0.85;0.85;;;13.30;99.90;;;;;;5038077;28;20505;-86
2023/10/29 00:34:14;;;;;;;0.80;0.80;;;14.00;99.90;;;;;;5035978;28;20042;-93
2023/10/29 00:36:40;;;;;;;0.90;0.90;;;14.00;99.90;;;;;;5036354;28;20053;-94
2023/10/29 00:39:07;;;;;;;0.90;0.90;;;14.10;99.90;;;;;;5016445;28;20048;-84
2023/10/29 00:41:38;;;;;;;0.80;0.80;;;13.50;99.90;;;;;;5031227;28;20041;-90
2023/10/29 00:44:04;;;;;;;0.90;0.90;;;13.80;99.90;;;;;;5011617;28;20053;-88
2023/10/29 00:46:30;;;;;;;0.80;0.80;;;14.10;99.90;;;;;;5030786;28;20127;-87
2023/10/29 00:48:58;;;;;;;0.90;0.90;;;14.20;99.90;;;;;;5032649;28;20098;-90
2023/10/29 00:51:25;;;;;;;0.88;0.88;;;13.50;99.90;;;;;;5036962;28;20040;-91
2023/10/29 00:54:00;;;;;;;0.90;0.90;;;13.90;99.90;;;;;;5012852;28;20053;-95
2023/10/29 00:56:26;;;;;;;0.82;0.82;;;13.50;99.90;;;;;;5034548;28;20081;-93
2023/10/29 00:58:52;;;;;;;0.90;0.90;;;14.10;99.90;;;;;;5032219;28;20115;-87
2023/10/29 01:01:36;;;;;;;0.80;0.80;;;13.70;99.90;;;;;;5048902;28;20041;-95
2023/10/29 01:04:04;;;;;;;0.90;0.90;;;13.50;99.90;;;;;;5015209;28;20052;-91
2023/10/29 01:06:31;;;;;;;0.90;0.90;;;13.70;99.90;;;;;;5061436;28;20049;-89
2023/10/29 01:08:58;;;;;;;0.90;0.90;;;14.10;99.90;;;;;;5040301;28;20124;-94
2023/10/29 01:11:33;;;;;;;0.80;0.80;;;13.70;99.90;;;;;;5031807;28;20053;-93
2023/10/29 01:14:07;;;;;;;0.85;0.85;;;14.40;99.90;;;;;;5054200;28;20966;-93
2023/10/29 01:16:36;;;;;;;0.90;0.90;;;13.80;99.90;;;;;;5019785;28;20610;-93
2023/10/29 01:19:17;;;;;;;0.80;0.80;;;13.80;99.90;;;;;;5068193;28;20098;-93
2023/10/29 01:21:46;;;;;;;0.80;0.80;;;13.90;99.90;;;;;;5020187;28;21059;-92
2023/10/29 01:24:15;;;;;;;0.82;0.82;;;13.90;99.90;;;;;;5023404;28;20059;-94
2023/10/29 01:26:41;;;;;;;0.90;0.90;;;14.60;99.90;;;;;;5034597;28;20056;-96
2023/10/29 01:29:07;;;;;;;0.90;0.90;;;14.00;99.90;;;;;;5022214;28;20126;-95
2023/10/29 01:31:33;;;;;;;0.80;0.80;;;14.30;99.90;;;;;;5023408;28;20079;-89
2023/10/29 01:33:59;;;;;;;0.80;0.80;;;14.50;99.90;;;;;;5025427;28;20064;-90
2023/10/29 01:36:25;;;;;;;0.82;0.82;;;14.00;99.90;;;;;;5022166;28;20121;-89
2023/10/29 01:38:53;;;;;;;0.82;0.82;;;14.20;99.90;;;;;;5023665;28;20044;-91
2023/10/29 01:41:18;;;;;;;0.85;0.85;;;14.70;99.90;;;;;;5031212;28;20051;-86
2023/10/29 01:43:47;;;;;;;0.90;0.90;;;14.10;99.90;;;;;;5032932;28;20124;-92
2023/10/29 01:46:15;;;;;;;0.88;0.88;;;14.60;99.90;;;;;;5016776;28;20058;-95
2023/10/29 01:48:41;;;;;;;0.90;0.90;;;14.10;99.90;;;;;;5019854;28;20040;-90
2023/10/29 01:51:21;;;;;;;0.90;0.90;;;14.70;99.90;;;;;;5039858;28;20052;-94
2023/10/29 01:53:47;;;;;;;0.90;0.90;;;14.40;99.90;;;;;;5035150;28;20049;-93
2023/10/29 01:56:19;;;;;;;0.90;0.90;;;14.70;99.90;;;;;;5035194;28;20135;-95
2023/10/29 01:58:53;;;;;;;0.98;0.98;;;14.40;99.90;;;;;;5021178;28;20037;-94
2023/10/29 02:01:22;;;;;;;0.90;0.90;;;14.30;99.90;;;;;;5032463;28;20049;-94
2023/10/29 02:03:48;;;;;;;0.90;0.90;;;14.20;99.90;;;;;;5033321;28;20044;-92
2023/10/29 02:06:20;;;;;;;0.80;0.80;;;14.70;99.90;;;;;;5043258;28;20048;-92
2023/10/29 02:08:49;;;;;;;0.90;0.90;;;14.30;99.90;;;;;;5023127;28;20037;-94
2023/10/29 02:11:27;;;;;;;0.82;0.82;;;14.70;99.90;;;;;;5028266;28;20052;-93
2023/10/29 02:13:53;;;;;;;0.80;0.80;;;14.20;99.90;;;;;;5023576;28;20041;-89
2023/10/29 02:16:18;;;;;;;0.93;0.93;;;14.70;99.90;;;;;;5053418;28;20103;-85
2023/10/29 02:18:47;;;;;;;0.90;0.90;;;14.60;99.90;;;;;;5045553;28;20045;-92
2023/10/29 02:21:25;;;;;;;0.82;0.82;;;14.50;99.90;;;;;;5030115;28;20060;-95
2023/10/29 02:24:01;;;;;;;0.90;0.90;;;14.60;99.90;;;;;;5035817;28;20063;-93
2023/10/29 02:26:31;;;;;;;0.90;0.90;;;14.30;99.90;;;;;;5047411;28;20052;-95
2023/10/29 02:28:57;;;;;;;0.85;0.85;;;14.30;99.90;;;;;;5044651;28;20757;-92
2023/10/29 02:31:23;;;;;;;0.85;0.85;;;14.70;99.90;;;;;;5030154;28;20044;-94
2023/10/29 02:34:01;;;;;;;0.80;0.80;;;14.60;99.90;;;;;;5030756;28;20075;-95
2023/10/29 02:36:26;;;;;;;0.90;0.90;;;14.60;99.90;;;;;;5049554;28;20038;-88
2023/10/29 02:38:58;;;;;;;0.95;0.95;;;14.80;99.90;;;;;;5037284;28;20044;-96
2023/10/29 02:41:25;;;;;;;0.90;0.90;;;14.40;99.90;;;;;;5027998;28;20491;-89
2023/10/29 02:43:51;;;;;;;0.95;0.95;;;14.40;99.90;;;;;;5033280;28;20045;-90
2023/10/29 02:46:17;;;;;;;1.00;1.00;;;14.40;99.90;;;;;;5029840;28;20048;-92
2023/10/29 02:48:42;;;;;;;0.95;0.95;;;14.40;99.90;;;;;;5033205;28;20802;-92
2023/10/29 02:51:12;;;;;;;0.90;0.90;;;14.60;99.90;;;;;;5033715;28;20045;-91
2023/10/29 02:53:38;;;;;;;0.95;0.95;;;14.40;99.90;;;;;;5048079;28;20044;-92
2023/10/29 02:56:11;;;;;;;0.93;0.93;;;14.80;99.90;;;;;;5025226;28;20084;-94
2023/10/29 02:58:37;;;;;;;0.93;0.93;;;14.50;99.90;;;;;;5042310;28;20553;-92
2023/10/29 03:01:07;;;;;;;0.90;0.90;;;14.70;99.90;;;;;;5025195;28;20132;-92
2023/10/29 03:03:39;;;;;;;0.80;0.80;;;14.60;99.90;;;;;;5059430;28;20052;-93
2023/10/29 03:06:08;;;;;;;0.90;0.90;;;14.80;99.90;;;;;;5025524;28;20127;-94
2023/10/29 03:08:35;;;;;;;0.85;0.85;;;14.80;99.90;;;;;;5042227;28;20399;-94
2023/10/29 03:11:04;;;;;;;0.90;0.90;;;14.80;99.90;;;;;;5026625;28;20515;-95
2023/10/29 03:13:30;;;;;;;1.00;1.00;;;14.90;99.90;;;;;;5059453;28;20076;-91
2023/10/29 03:15:59;;;;;;;1.05;1.05;;;14.90;99.90;;;;;;5046307;28;20157;-95
2023/10/29 03:18:29;;;;;;;0.98;0.98;;;14.80;99.90;;;;;;5025793;28;20040;-90
2023/10/29 03:20:58;;;;;;;1.00;1.00;;;15.00;99.90;;;;;;5024912;28;20041;-91
2023/10/29 03:23:24;;;;;;;1.05;1.05;;;14.90;99.90;;;;;;5028393;28;20826;-95
2023/10/29 03:25:53;;;;;;;1.00;1.00;;;15.00;99.90;;;;;;5045697;28;20052;-94
2023/10/29 03:28:19;;;;;;;0.90;0.90;;;15.00;99.90;;;;;;5023424;28;20083;-90
2023/10/29 03:30:48;;;;;;;0.90;0.90;;;15.20;99.90;;;;;;5021149;28;20049;-95
2023/10/29 03:33:14;;;;;;;0.82;0.82;;;15.00;99.90;;;;;;5028555;28;20052;-92
2023/10/29 03:35:39;;;;;;;1.00;1.00;;;15.10;99.90;;;;;;5038490;28;20044;-92
2023/10/29 03:38:11;;;;;;;1.10;1.10;;;15.10;99.90;;;;;;5024867;28;20041;-95
2023/10/29 03:40:40;;;;;;;1.00;1.00;;;15.10;99.90;;;;;;5041245;28;20128;-92
2023/10/29 03:43:09;;;;;;;1.00;1.00;;;15.20;99.90;;;;;;5024123;28;20167;-94
2023/10/29 03:45:35;;;;;;;1.10;1.10;;;15.10;99.90;;;;;;5037592;28;20107;-93
2023/10/29 03:48:15;;;;;;;1.10;1.10;;;15.20;99.90;;;;;;5021136;28;20037;-95
2023/10/29 03:50:42;;;;;;;1.10;1.10;;;15.20;99.90;;;;;;5039842;28;20378;-90
2023/10/29 03:53:08;;;;;;;1.05;1.05;;;15.10;99.90;;;;;;5017765;28;20460;-88
2023/10/29 03:55:36;;;;;;;1.10;1.10;;;15.20;99.90;;;;;;5042933;28;20048;-91
2023/10/29 03:58:02;;;;;;;1.00;1.00;;;15.20;99.90;;;;;;5018337;28;20061;-93
2023/10/29 04:00:29;;;;;;;1.00;1.00;;;15.30;99.90;;;;;;5064851;28;20045;-89
2023/10/29 04:02:55;;;;;;;1.10;1.10;;;15.20;99.90;;;;;;5019968;28;20069;-88
2023/10/29 04:05:24;;;;;;;1.08;1.08;;;15.30;99.90;;;;;;5032729;28;20075;-89
2023/10/29 04:07:53;;;;;;;1.05;1.05;;;15.20;99.90;;;;;;5016455;28;20077;-91
2023/10/29 04:10:19;;;;;;;1.00;1.00;;;15.20;99.90;;;;;;5017887;28;20041;-87
2023/10/29 04:12:45;;;;;;;0.90;0.90;;;15.20;99.90;;;;;;5019155;28;20059;-83
2023/10/29 04:15:11;;;;;;;1.10;1.10;;;15.10;99.90;;;;;;5040280;28;20052;-89
2023/10/29 04:17:40;;;;;;;1.08;1.08;;;15.10;99.90;;;;;;5047575;28;20040;-86
2023/10/29 04:20:11;;;;;;;1.00;1.00;;;15.20;99.90;;;;;;5020099;28;20102;-91
2023/10/29 04:22:37;;;;;;;1.00;1.00;;;15.10;99.90;;;;;;5016271;28;20049;-90
2023/10/29 04:25:03;;;;;;;1.00;1.00;;;15.10;99.90;;;;;;5014426;28;20055;-89
2023/10/29 04:27:32;;;;;;;1.00;1.00;;;15.20;99.90;;;;;;5020324;28;20040;-93
2023/10/29 04:29:58;;;;;;;1.00;1.00;;;15.20;99.90;;;;;;5036768;28;20124;-90
2023/10/29 04:32:23;;;;;;;1.00;1.00;;;15.30;99.90;;;;;;5034549;28;20127;-86
2023/10/29 04:34:49;;;;;;;1.08;1.08;;;15.30;99.90;;;;;;5045397;28;20534;-89
2023/10/29 04:37:15;;;;;;;1.10;1.10;;;15.40;99.90;;;;;;5038105;28;20044;-88
2023/10/29 04:39:46;;;;;;;1.05;1.05;;;15.40;99.90;;;;;;5029200;28;20138;-90
2023/10/29 04:42:14;;;;;;;1.00;1.00;;;15.30;99.90;;;;;;5034829;28;20401;-90
2023/10/29 04:44:42;;;;;;;1.00;1.00;;;15.30;99.90;;;;;;5014441;28;20049;-90
2023/10/29 04:47:11;;;;;;;1.00;1.00;;;15.30;99.90;;;;;;5019247;28;20080;-87
2023/10/29 04:49:37;;;;;;;1.02;1.02;;;15.30;99.90;;;;;;5018724;28;20119;-90
2023/10/29 04:52:06;;;;;;;1.00;1.00;;;15.20;99.90;;;;;;5055781;28;20791;-88
2023/10/29 04:54:31;;;;;;;1.00;1.00;;;15.30;99.90;;;;;;5017537;28;20122;-90
2023/10/29 04:56:57;;;;;;;1.00;1.00;;;15.20;99.90;;;;;;5029921;28;20045;-87
2023/10/29 04:59:23;;;;;;;1.00;1.00;;;15.20;99.90;;;;;;5034477;28;20045;-85
2023/10/29 05:01:49;;;;;;;1.08;1.08;;;15.30;99.90;;;;;;5032263;28;20041;-88
2023/10/29 05:04:14;;;;;;;1.10;1.10;;;15.30;99.90;;;;;;5043679;28;20077;-84
2023/10/29 05:06:40;;;;;;;1.00;1.00;;;15.40;99.90;;;;;;5011089;28;20045;-87
2023/10/29 05:09:06;;;;;;;0.90;0.90;;;15.30;99.90;;;;;;5029166;28;20770;-89
2023/10/29 05:11:32;;;;;;;0.90;0.90;;;15.30;99.90;;;;;;5014180;28;20044;-88
2023/10/29 05:13:57;;;;;;;0.98;0.98;;;15.30;99.90;;;;;;5031796;28;20045;-86
2023/10/29 05:16:29;;;;;;;1.10;1.10;;;15.20;99.90;;;;;;5030045;28;20410;-89
2023/10/29 05:18:55;;;;;;;1.00;1.00;;;15.10;99.90;;;;;;5020371;28;20179;-85
2023/10/29 05:21:20;;;;;;;0.90;0.90;;;15.10;99.90;;;;;;5017093;28;20138;-86
2023/10/29 05:23:46;;;;;;;1.10;1.10;;;15.10;99.90;;;;;;5024422;28;20048;-87
2023/10/29 05:26:15;;;;;;;1.08;1.08;;;15.10;99.90;;;;;;4993827;28;20202;-87
2023/10/29 05:28:41;;;;;;;1.00;1.00;;;15.20;99.90;;;;;;5013624;28;20045;-93
2023/10/29 05:31:06;;;;;;;0.98;0.98;;;15.20;99.90;;;;;;5022203;28;20067;-88
2023/10/29 05:33:32;;;;;;;0.90;0.90;;;15.10;99.90;;;;;;5016974;28;20045;-88
2023/10/29 05:35:58;;;;;;;1.08;1.08;;;15.20;99.90;;;;;;5014867;28;20048;-87
2023/10/29 05:38:24;;;;;;;1.00;1.00;;;15.20;99.90;;;;;;5024651;28;20045;-94
2023/10/29 05:40:49;;;;;;;1.00;1.00;;;15.20;99.90;;;;;;5016117;28;20046;-88
2023/10/29 05:43:15;;;;;;;0.95;0.95;;;15.10;99.90;;;;;;5029036;28;20056;-86
2023/10/29 05:45:41;;;;;;;1.00;1.00;;;15.10;99.90;;;;;;5037525;28;20075;-88
2023/10/29 05:48:09;;;;;;;0.90;0.90;;;15.10;99.90;;;;;;5034722;28;20131;-93
2023/10/29 05:50:35;;;;;;;1.00;1.00;;;15.10;99.90;;;;;;5035222;28;20100;-89
2023/10/29 05:53:02;;;;;;;0.93;0.93;;;15.00;99.90;;;;;;5014552;28;20188;-87
2023/10/29 05:55:30;;;;;;;1.00;1.00;;;15.00;99.90;;;;;;5017711;28;20112;-85
2023/10/29 05:57:56;;;;;;;0.90;0.90;;;15.00;99.90;;;;;;5030029;28;20052;-86
2023/10/29 06:00:22;;;;;;;1.05;1.05;;;15.00;99.90;;;;;;5014802;28;20041;-86
2023/10/29 06:02:48;;;;;;;1.00;1.00;;;15.10;99.90;;;;;;5032112;28;20502;-88
2023/10/29 06:05:14;;;;;;;1.00;1.00;;;15.20;99.90;;;;;;5021005;28;20041;-91
2023/10/29 06:07:43;;;;;;;1.00;1.00;;;15.20;99.90;;;;;;5036864;28;20048;-86
2023/10/29 06:10:12;;;;;;;0.90;0.90;;;15.30;99.90;;;;;;5048068;28;20053;-88
2023/10/29 06:12:41;;;;;;;0.90;0.90;;;15.30;99.90;;;;;;5016080;28;20045;-91
2023/10/29 06:15:11;;;;;;;1.00;1.00;;;15.30;99.90;;;;;;5016313;28;20044;-87
2023/10/29 06:17:37;;;;;;;0.98;0.98;;;15.30;99.90;;;;;;5011184;28;20119;-86
2023/10/29 06:20:04;;;;;;;1.00;1.00;;;15.40;99.90;;;;;;5012188;28;20037;-88
2023/10/29 06:22:32;;;;;;;1.00;1.00;;;15.40;99.90;;;;;;5014649;28;20048;-87
2023/10/29 06:25:01;;;;;;;1.10;1.10;;;15.40;99.90;;;;;;5046891;28;20076;-87
2023/10/29 06:27:27;;;;;;;1.00;1.00;;;15.30;99.90;;;;;;4997493;28;20758;-86
2023/10/29 06:29:55;;;;;;;1.10;1.10;;;15.20;99.90;;;;;;5017656;28;20048;-89
2023/10/29 06:32:21;;;;;;;0.93;0.93;;;15.20;99.90;;;;;;5031558;28;20073;-90
2023/10/29 06:34:47;;;;;;;1.00;1.00;;;15.10;99.90;;;;;;5021813;28;20072;-87
2023/10/29 06:37:12;;;;;;;1.10;1.10;;;15.10;99.90;;;;;;5015704;28;20045;-89
2023/10/29 06:39:38;;;;;;;0.95;0.95;;;15.20;99.90;;;;;;5036894;28;20044;-88
2023/10/29 06:42:04;;;;;;;1.00;1.00;;;15.10;99.90;;;;;;5020227;28;20691;-86
2023/10/29 06:44:30;;;;;;;1.00;1.00;;;15.10;99.90;;;;;;5012945;28;20405;-88
2023/10/29 06:46:55;;;;;;;1.00;1.00;;;15.10;99.90;;;;;;5013947;28;20049;-90
2023/10/29 06:49:21;;;;;;;1.08;1.08;;;15.20;99.90;;;;;;5036631;28;20075;-87
2023/10/29 06:51:47;;;;;;;1.10;1.10;;;15.10;99.90;;;;;;5044421;28;20048;-88
2023/10/29 06:54:13;;;;;;;1.10;1.10;;;15.10;99.90;;;;;;5023425;28;20040;-90
2023/10/29 06:56:44;;;;;;;1.00;1.00;;;15.20;99.90;;;;;;5033495;28;20045;-91
2023/10/29 06:59:10;;;;;;;1.00;1.00;;;15.20;99.90;;;;;;5019390;28;20068;-92
2023/10/29 07:01:36;;;;;;;1.00;1.00;;;15.20;99.90;;;;;;5072805;28;20080;-83
2023/10/29 07:04:02;;;;;;;1.00;1.00;;;15.30;99.90;;;;;;5026452;28;20052;-85
2023/10/29 07:06:39;;;;;;;1.05;1.05;;;15.30;99.90;;;;;;5022761;28;20059;-87
2023/10/29 07:09:09;;;;;;;1.10;1.10;;;15.30;99.90;;;;;;5025658;28;20053;-90
2023/10/29 07:11:34;;;;;;;1.00;1.00;;;15.30;99.90;;;;;;5019779;28;20276;-90
2023/10/29 07:14:06;;;;;;;1.10;1.10;;;15.30;99.90;;;;;;5014804;28;20041;-90
2023/10/29 07:16:32;;;;;;;1.02;1.02;;;15.30;99.90;;;;;;5019190;28;20048;-85
2023/10/29 07:18:58;;;;;;;1.00;1.00;;;15.30;99.90;;;;;;5034412;28;20541;-83
2023/10/29 07:21:24;;;;;;;1.00;1.00;;;15.30;99.90;;;;;;5031810;28;20065;-90
2023/10/29 07:23:49;;;;;;;1.00;1.00;;;15.30;99.90;;;;;;5016372;28;20049;-89
2023/10/29 07:26:15;;;;;;;1.00;1.00;;;15.40;99.90;;;;;;5035468;28;20055;-87
2023/10/29 07:28:41;;;;;;;1.00;1.00;;;15.50;99.90;;;;;;5046480;28;20828;-87
2023/10/29 07:31:12;;;;;;;1.05;1.05;;;15.40;99.90;;;;;;5030072;28;20040;-93
2023/10/29 07:33:38;;;;;;;1.10;1.10;;;15.50;99.90;;;;;;5022694;28;20045;-88
2023/10/29 07:36:04;;;;;;;1.10;1.10;;;15.70;99.90;;;;;;5036171;28;20048;-88
2023/10/29 07:38:30;;;;;;;1.00;1.00;;;15.70;99.90;;;;;;5032657;28;20077;-86
2023/10/29 07:40:56;;;;;;;1.10;1.10;;;15.60;99.90;;;;;;5036090;28;20053;-86
2023/10/29 07:43:22;;;;;;;1.10;1.10;;;15.70;99.90;;;;;;5012853;28;20065;-86
2023/10/29 07:46:01;;;;;;;1.10;1.10;;;15.70;99.90;;;;;;5031988;28;20057;-90
2023/10/29 07:48:29;;;;;;;1.20;1.20;;;15.70;99.90;;;;;;5027147;28;20119;-94
2023/10/29 07:50:58;;;;;;;1.15;1.15;;;15.70;99.90;;;;;;5024565;28;20584;-87
2023/10/29 07:53:28;;;;;;;1.20;1.20;;;15.80;99.90;;;;;;5050716;28;20548;-86
2023/10/29 07:55:53;;;;;;;1.10;1.10;;;15.80;99.90;;;;;;5060648;28;20131;-82
2023/10/29 07:58:19;;;;;;;1.17;1.17;;;15.80;99.90;;;;;;5036006;28;20136;-88
2023/10/29 08:00:45;;;;;;;1.20;1.20;;;15.90;99.90;;;;;;5032666;28;20474;-93
2023/10/29 08:03:10;;;;;;;1.20;1.20;;;15.90;99.90;;;;;;5014787;28;20147;-89
2023/10/29 08:05:36;;;;;;;1.40;1.40;;;15.90;99.90;;;;;;5028814;28;20115;-88
2023/10/29 08:08:05;;;;;;;1.60;1.50;;;16.00;99.90;;;;;;5036543;28;20045;-92
2023/10/29 08:10:31;;;;;;;1.40;1.40;;;16.20;99.90;;;;;;5057004;28;20487;-85
2023/10/29 08:12:57;;;;;;;1.20;1.20;;;16.10;99.90;;;;;;5032935;28;20117;-87
2023/10/29 08:15:23;;;;;;;1.15;1.15;;;15.90;99.90;;;;;;5034863;28;20044;-90
2023/10/29 08:17:48;;;;;;;1.50;1.40;;;16.00;99.90;;;;;;5018218;28;20045;-85
2023/10/29 08:20:14;;;;;;;1.60;1.50;;;16.00;99.90;;;;;;5029542;28;20052;-86
2023/10/29 08:22:40;;;;;;;1.30;1.30;;;16.10;99.90;;;;;;5027417;28;20500;-85
2023/10/29 08:25:06;;;;;;;1.50;1.40;;;16.10;99.90;;;;;;5063737;28;20139;-84
2023/10/29 08:27:32;;;;;;;1.60;1.50;;;16.00;99.90;;;;;;5068382;28;20094;-83
2023/10/29 08:29:57;;;;;;;1.50;1.40;;;15.90;99.90;;;;;;5032501;28;20048;-84
2023/10/29 08:32:23;;;;;;;1.50;1.40;;;15.70;99.90;;;;;;5049884;28;20521;-85
2023/10/29 08:34:58;;;;;;;1.60;1.50;;;15.70;99.90;;;;;;5046501;28;20053;-86
2023/10/29 08:37:23;;;;;;;1.70;1.60;;;15.90;99.90;;;;;;5030817;28;20828;-86
2023/10/29 08:39:49;;;;;;;1.67;1.58;;;16.00;99.90;;;;;;5023122;28;20045;-85
2023/10/29 08:42:18;;;;;;;1.60;1.50;;;16.00;99.90;;;;;;5044768;28;20048;-95
2023/10/29 08:44:46;;;;;;;1.55;1.45;;;16.10;99.90;;;;;;5030190;28;20041;-91
2023/10/29 08:47:12;;;;;;;1.25;1.25;;;16.20;99.90;;;;;;5052523;28;20049;-93
2023/10/29 08:49:37;;;;;;;1.63;1.52;;;16.20;99.90;;;;;;5029107;28;20056;-89
2023/10/29 08:52:04;;;;;;;1.70;1.60;;;16.20;99.90;;;;;;5014734;28;20184;-84
2023/10/29 08:54:29;;;;;;;1.50;1.40;;;16.10;99.90;;;;;;5030747;28;20503;-85
2023/10/29 08:56:55;;;;;;;1.27;1.27;;;16.30;99.90;;;;;;5028315;28;20079;-86
2023/10/29 08:59:21;;;;;;;1.60;1.50;;;16.10;99.90;;;;;;5014948;28;20045;-86
2023/10/29 09:01:46;;;;;;;1.60;1.50;;;16.00;99.90;;;;;;5022795;28;20060;-86
2023/10/29 09:04:12;;;;;;;1.70;1.60;;;15.90;99.90;;;;;;5021218;28;20532;-91
2023/10/29 09:06:38;;;;;;;1.80;1.70;;;16.00;99.90;;;;;;5008013;28;20044;-85
2023/10/29 09:09:04;;;;;;;1.50;1.40;;;16.50;99.90;;;;;;5019685;28;20044;-92
2023/10/29 09:11:30;;;;;;;1.70;1.60;;;16.60;99.90;;;;;;5030961;28;20798;-87
2023/10/29 09:13:57;;;;;;;1.30;1.30;;;16.40;99.90;;;;;;5021589;28;20060;-90
2023/10/29 09:16:23;;;;;;;1.80;1.70;;;16.30;99.90;;;;;;5009558;28;20049;-86
2023/10/29 09:18:49;;;;;;;1.50;1.40;;;16.60;99.90;;;;;;5042859;28;20103;-89
2023/10/29 09:21:17;;;;;;;1.55;1.45;;;16.50;99.90;;;;;;5013469;28;20050;-92
2023/10/29 09:23:43;;;;;;;1.25;1.25;;;16.70;99.90;;;;;;5014921;28;20095;-91
2023/10/29 09:26:09;;;;;;;1.77;1.67;;;16.70;99.90;;;;;;5033358;28;20037;-84
2023/10/29 09:28:34;;;;;;;1.58;1.48;;;16.70;99.90;;;;;;5039337;28;20044;-85
2023/10/29 09:31:08;;;;;;;1.45;1.38;;;16.40;99.90;;;;;;5059195;28;20091;-92
2023/10/29 09:33:34;;;;;;;2.00;1.90;;;16.30;99.90;;;;;;5036580;28;20055;-88
2023/10/29 09:36:00;;;;;;;1.80;1.70;;;16.40;99.90;;;;;;5031261;28;20037;-85
2023/10/29 09:38:26;;;;;;;1.80;1.70;;;16.50;99.90;;;;;;5023179;28;20065;-87
2023/10/29 09:40:52;;;;;;;1.70;1.60;;;16.40;99.90;;;;;;5015342;28;20119;-90
2023/10/29 09:43:20;;;;;;;1.80;1.70;;;16.40;99.90;;;;;;5026953;28;20505;-86
2023/10/29 09:45:46;;;;;;;1.80;1.70;;;16.20;99.90;;;;;;5056193;28;20040;-87
2023/10/29 09:48:16;;;;;;;1.67;1.58;;;16.60;99.90;;;;;;5007037;28;20037;-86
2023/10/29 09:50:43;;;;;;;1.67;1.58;;;16.80;99.90;;;;;;5035085;28;20572;-89
2023/10/29 09:53:11;;;;;;;1.80;1.70;;;16.90;99.90;;;;;;5031172;28;20052;-83
2023/10/29 09:55:39;;;;;;;1.90;1.80;;;16.90;99.90;;;;;;5025764;28;20060;-86
2023/10/29 09:58:05;;;;;;;1.90;1.80;;;16.90;99.90;;;;;;5040117;28;20072;-95
2023/10/29 10:00:31;;;;;;;1.80;1.70;;;16.90;99.90;;;;;;5021943;28;20076;-85
2023/10/29 10:02:58;;;;;;;1.65;1.55;;;16.80;99.90;;;;;;5023890;28;20115;-87
2023/10/29 10:05:25;;;;;;;2.13;2.03;;;16.50;99.90;;;;;;5022556;28;20048;-86
2023/10/29 10:07:57;;;;;;;1.73;1.63;;;16.30;99.90;;;;;;5021145;28;20048;-84
2023/10/29 10:10:39;;;;;;;1.85;1.75;;;16.20;99.90;;;;;;5003417;28;20085;-85
2023/10/29 10:13:06;;;;;;;1.60;1.50;;;16.20;99.90;;;;;;5041926;28;20052;-87
2023/10/29 10:15:32;;;;;;;1.80;1.70;;;16.30;99.90;;;;;;5008949;28;20041;-87
2023/10/29 10:18:00;;;;;;;1.80;1.70;;;16.40;99.90;;;;;;5028335;28;20045;-85
2023/10/29 10:20:26;;;;;;;1.75;1.65;;;16.40;99.90;;;;;;5035118;28;20044;-88
2023/10/29 10:23:03;;;;;;;1.55;1.45;;;16.50;99.90;;;;;;5058239;28;20120;-88
2023/10/29 10:25:30;;;;;;;1.50;1.42;;;16.70;99.90;;;;;;5055021;28;20044;-85
2023/10/29 10:27:58;;;;;;;1.83;1.73;;;16.70;99.90;;;;;;5035159;28;20048;-87
2023/10/29 10:30:34;;;;;;;1.88;1.77;;;16.90;99.90;;;;;;5035715;28;20588;-93
2023/10/29 10:33:09;;;;;;;1.90;1.80;;;17.00;99.90;;;;;;5016376;28;20060;-89
2023/10/29 10:35:42;;;;;;;1.60;1.50;;;17.00;99.90;;;;;;5043263;28;20037;-88
2023/10/29 10:38:08;;;;;;;1.50;1.40;;;17.00;99.90;;;;;;5024043;28;20094;-89
2023/10/29 10:40:34;;;;;;;1.75;1.65;;;17.10;99.90;;;;;;5039460;28;20052;-86
2023/10/29 10:43:12;;;;;;;1.52;1.42;;;17.10;99.90;;;;;;5017799;28;20048;-90
2023/10/29 10:45:38;;;;;;;1.27;1.27;;;17.00;99.90;;;;;;5019900;28;20110;-87
2023/10/29 10:48:08;;;;;;;1.20;1.20;;;17.00;99.90;;;;;;5031181;28;20049;-92
2023/10/29 10:50:37;;;;;;;1.02;1.02;;;17.20;99.90;;;;;;5019086;28;20043;-91
2023/10/29 10:53:03;;;;;;;1.10;1.10;;;17.20;99.90;;;;;;5021383;28;20060;-86
2023/10/29 10:55:30;;;;;;;1.13;1.13;;;17.00;99.90;;;;;;5053288;28;20048;-88
2023/10/29 10:57:57;;;;;;;0.80;0.80;;;17.10;99.90;;;;;;5052564;28;20045;-84
2023/10/29 11:00:23;;;;;;;0.80;0.80;;;17.10;99.90;;;;;;5028328;28;20041;-87
2023/10/29 11:02:50;;;;;;;1.10;1.10;;;17.00;99.90;;;;;;5029214;28;20059;-88
2023/10/29 11:05:16;;;;;;;1.23;1.23;;;16.90;99.90;;;;;;5013477;28;20099;-86
2023/10/29 11:07:44;;;;;;;0.80;0.80;;;16.80;99.90;;;;;;5024431;28;20569;-85
2023/10/29 11:10:13;;;;;;;1.17;1.17;;;16.80;99.90;;;;;;5063651;28;20044;-86
2023/10/29 11:12:40;;;;;;;1.23;1.23;;;16.70;99.90;;;;;;5021548;28;20074;-85
2023/10/29 11:15:20;;;;;;;1.02;1.02;;;16.70;99.90;;;;;;5040833;28;20944;-88
2023/10/29 11:17:59;;;;;;;0.75;0.75;;;16.70;99.90;;;;;;5010145;28;20045;-88
2023/10/29 11:20:41;;;;;;;0.80;0.80;;;16.80;99.90;;;;;;5021769;28;20076;-86
2023/10/29 11:23:14;;;;;;;0.98;0.98;;;17.10;99.90;;;;;;5015557;28;20505;-89
2023/10/29 11:25:41;;;;;;;1.42;1.40;;;17.50;99.90;;;;;;5028164;28;20045;-88
2023/10/29 11:28:28;;;;;;;0.80;0.80;;;17.80;99.90;;;;;;5046198;28;20080;-88
2023/10/29 11:31:14;;;;;;;0.70;0.70;;;17.80;99.90;;;;;;5032050;28;20060;-90
2023/10/29 11:34:06;;;;;;;0.80;0.80;;;17.50;99.90;;;;;;5037722;28;20061;-86
2023/10/29 11:36:38;;;;;;;0.70;0.70;;;17.30;99.90;;;;;;4994279;28;20052;-91
2023/10/29 11:39:31;;;;;;;0.63;0.63;;;17.40;99.90;;;;;;5062553;28;20635;-89
2023/10/29 11:41:59;;;;;;;0.80;0.80;;;17.90;99.90;;;;;;5009990;28;20083;-88
2023/10/29 11:44:27;;;;;;;0.60;0.60;;;18.20;99.90;;;;;;5024345;28;20052;-89
2023/10/29 11:46:55;;;;;;;0.60;0.60;;;18.40;99.90;;;;;;5040930;28;20131;-88
2023/10/29 11:49:25;;;;;;;0.70;0.70;;;18.50;99.90;;;;;;5032152;28;20041;-87
2023/10/29 11:51:59;;;;;;;0.82;0.82;;;18.00;99.90;;;;;;5065690;28;20076;-90
2023/10/29 11:54:25;;;;;;;0.82;0.82;;;17.70;99.90;;;;;;5031691;28;20036;-89
2023/10/29 11:56:52;;;;;;;0.90;0.90;;;17.60;99.90;;;;;;5035791;28;20049;-86
2023/10/29 11:59:18;;;;;;;0.90;0.90;;;17.40;99.90;;;;;;5037487;28;20112;-89
2023/10/29 12:01:44;;;;;;;0.80;0.80;;;17.30;99.90;;;;;;5067810;28;20410;-91
2023/10/29 12:04:14;;;;;;;0.90;0.90;;;17.20;99.90;;;;;;5019277;28;20692;-92
2023/10/29 12:06:43;;;;;;;0.90;0.90;;;17.00;99.90;;;;;;5046744;28;20132;-84
2023/10/29 12:09:21;;;;;;;0.85;0.85;;;17.10;99.90;;;;;;5010886;28;20567;-88
2023/10/29 12:11:54;;;;;;;0.80;0.80;;;17.00;99.90;;;;;;5027544;28;20041;-90
2023/10/29 12:14:46;;;;;;;0.93;0.93;;;16.90;99.90;;;;;;5060651;28;20045;-88
2023/10/29 12:17:14;;;;;;;0.80;0.80;;;16.80;99.90;;;;;;5021302;28;20071;-92
2023/10/29 12:19:45;;;;;;;0.80;0.80;;;16.70;99.90;;;;;;5049465;28;20068;-90
2023/10/29 12:22:24;;;;;;;0.80;0.80;;;16.70;99.90;;;;;;5013786;28;20066;-89
2023/10/29 12:24:58;;;;;;;0.90;0.90;;;16.70;99.90;;;;;;5025148;28;20132;-86
2023/10/29 12:27:24;;;;;;;;;;;16.70;99.90;;;;;;5064969;28;20507;-87
2023/10/29 12:29:50;;;;;;;0.90;0.90;;;16.80;99.90;;;;;;5015966;28;19927;-88
2023/10/29 12:32:17;;;;;;;0.70;0.70;;;16.80;99.90;;;;;;5024511;28;20051;-85
2023/10/29 12:34:52;;;;;;;0.80;0.80;;;16.80;99.90;;;;;;5030069;28;20482;-86
2023/10/29 12:37:28;;;;;;;0.60;0.60;;;16.60;99.90;;;;;;5028745;28;20044;-88
2023/10/29 12:39:59;;;;;;;0.77;0.77;;;16.60;99.90;;;;;;5025325;28;20040;-88
2023/10/29 12:42:54;;;;;;;0.60;0.60;;;16.50;99.90;;;;;;5013494;28;20040;-89
2023/10/29 12:45:46;;;;;;;0.70;0.70;;;16.50;99.90;;;;;;5014910;28;20048;-95
2023/10/29 12:48:15;;;;;;;0.95;0.95;;;16.60;99.90;;;;;;5008871;28;20049;-91
2023/10/29 12:50:48;;;;;;;0.80;0.80;;;16.50;99.90;;;;;;5031352;28;20057;-91
2023/10/29 12:53:31;;;;;;;0.88;0.88;;;16.50;99.90;;;;;;5016695;28;20041;-88